createdAt,value
2019-03-18T00:01:49.149Z,31.90
2019-03-18T00:04:52.682Z,31.87
2019-03-18T00:07:56.172Z,31.87
2019-03-18T00:11:00.693Z,31.88
2019-03-18T00:14:05.219Z,31.88
2019-03-18T00:17:09.752Z,31.88
2019-03-18T00:20:15.322Z,31.89
2019-03-18T00:23:18.792Z,31.90
2019-03-18T00:26:23.321Z,31.90
2019-03-18T00:29:27.849Z,31.93
2019-03-18T00:32:31.356Z,31.93
2019-03-18T00:35:34.865Z,31.94
2019-03-18T00:38:39.364Z,31.96
2019-03-18T00:41:43.900Z,31.92
2019-03-18T00:44:47.393Z,31.90
2019-03-18T00:47:50.948Z,31.92
2019-03-18T00:50:54.385Z,31.84
2019-03-18T00:53:57.900Z,31.87
2019-03-18T00:57:01.404Z,31.88
2019-03-18T01:00:05.676Z,31.89
2019-03-18T01:03:09.297Z,31.86
2019-03-18T01:06:12.767Z,31.86
2019-03-18T01:09:17.252Z,31.91
2019-03-18T01:12:22.788Z,31.87
2019-03-18T01:15:28.858Z,31.83
2019-03-18T01:18:32.452Z,31.80
2019-03-18T01:21:37.081Z,31.83
2019-03-18T01:24:40.586Z,31.85
2019-03-18T01:27:44.187Z,31.82
2019-03-18T01:30:47.688Z,31.84
2019-03-18T01:33:51.208Z,31.86
2019-03-18T01:36:54.699Z,31.85
2019-03-18T01:39:58.181Z,31.87
2019-03-18T01:43:01.794Z,31.87
2019-03-18T01:46:05.223Z,31.91
2019-03-18T01:49:08.677Z,31.88
2019-03-18T01:52:12.222Z,31.79
2019-03-18T01:55:15.717Z,31.82
2019-03-18T01:58:19.198Z,31.81
2019-03-18T02:01:22.730Z,31.84
2019-03-18T02:04:26.197Z,31.86
2019-03-18T02:07:29.720Z,31.87
2019-03-18T02:10:34.285Z,31.86
2019-03-18T02:13:37.754Z,31.87
2019-03-18T02:16:41.226Z,31.88
2019-03-18T02:19:44.720Z,31.90
2019-03-18T02:22:48.161Z,31.89
2019-03-18T02:25:51.639Z,31.91
2019-03-18T02:28:55.247Z,31.92
2019-03-18T02:31:59.809Z,31.89
2019-03-18T02:35:03.249Z,31.84
2019-03-18T02:38:06.808Z,31.85
2019-03-18T02:41:10.420Z,31.89
2019-03-18T02:44:14.064Z,31.85
2019-03-18T02:47:17.600Z,31.79
2019-03-18T02:50:22.223Z,31.82
2019-03-18T02:53:26.734Z,31.71
2019-03-18T02:56:30.238Z,31.80
2019-03-18T02:59:33.742Z,31.76
2019-03-18T03:02:37.236Z,31.76
2019-03-18T03:05:40.801Z,31.79
2019-03-18T03:08:44.235Z,31.80
2019-03-18T03:11:47.680Z,31.75
2019-03-18T03:14:51.227Z,31.75
2019-03-18T03:17:54.749Z,31.79
2019-03-18T03:20:58.235Z,31.79
2019-03-18T03:24:01.743Z,31.76
2019-03-18T03:27:05.297Z,31.74
2019-03-18T03:30:09.083Z,31.75
2019-03-18T03:33:12.559Z,31.74
2019-03-18T03:36:16.070Z,31.79
2019-03-18T03:39:19.672Z,31.79
2019-03-18T03:42:23.163Z,31.76
2019-03-18T03:45:26.700Z,31.70
2019-03-18T03:48:31.266Z,31.66
2019-03-18T03:51:34.911Z,31.63
2019-03-18T03:54:38.393Z,31.69
2019-03-18T03:57:41.903Z,31.57
2019-03-18T04:00:46.395Z,31.53
2019-03-18T04:03:49.845Z,31.61
2019-03-18T04:06:53.425Z,31.54
2019-03-18T04:09:56.914Z,31.64
2019-03-18T04:13:00.440Z,31.60
2019-03-18T04:16:04.933Z,31.63
2019-03-18T04:19:08.435Z,31.60
2019-03-18T04:22:15.137Z,31.58
2019-03-18T04:25:18.556Z,31.54
2019-03-18T04:28:22.052Z,31.48
2019-03-18T04:31:28.603Z,31.52
2019-03-18T04:34:32.165Z,31.53
2019-03-18T04:37:35.893Z,31.52
2019-03-18T04:40:39.492Z,31.54
2019-03-18T04:43:42.936Z,31.58
2019-03-18T04:46:46.451Z,31.59
2019-03-18T04:49:49.967Z,31.55
2019-03-18T04:52:53.496Z,31.57
2019-03-18T04:55:56.990Z,31.56
2019-03-18T04:59:05.779Z,31.61
2019-03-18T05:02:09.326Z,31.65
2019-03-18T05:05:12.843Z,31.63
2019-03-18T05:08:16.339Z,31.61
2019-03-18T05:11:19.830Z,31.60
2019-03-18T05:14:23.306Z,31.59
2019-03-18T05:17:27.178Z,31.60
2019-03-18T05:20:30.732Z,31.64
2019-03-18T05:23:35.301Z,31.66
2019-03-18T05:26:38.795Z,31.59
2019-03-18T05:29:42.233Z,31.61
2019-03-18T05:32:45.781Z,31.67
2019-03-18T05:35:49.270Z,31.63
2019-03-18T05:38:52.790Z,31.61
2019-03-18T05:41:56.283Z,31.50
2019-03-18T05:44:59.799Z,31.65
2019-03-18T05:48:04.363Z,31.57
2019-03-18T05:51:07.804Z,31.59
2019-03-18T05:54:11.297Z,31.54
2019-03-18T05:57:14.795Z,31.60
2019-03-18T06:00:18.304Z,31.64
2019-03-18T06:03:21.817Z,31.53
2019-03-18T06:06:25.335Z,31.59
2019-03-18T06:09:29.875Z,31.54
2019-03-18T06:12:34.536Z,31.50
2019-03-18T06:15:39.066Z,31.56
2019-03-18T06:18:43.626Z,31.58
2019-03-18T06:21:47.069Z,31.54
2019-03-18T06:24:50.599Z,31.56
2019-03-18T06:27:56.347Z,31.61
2019-03-18T06:30:59.858Z,31.58
2019-03-18T06:34:04.385Z,31.59
2019-03-18T06:37:07.902Z,31.64
2019-03-18T06:40:11.434Z,31.56
2019-03-18T06:43:15.039Z,31.58
2019-03-18T06:46:18.525Z,31.57
2019-03-18T06:49:22.121Z,31.48
2019-03-18T06:52:25.589Z,31.50
2019-03-18T06:55:29.123Z,31.53
2019-03-18T06:58:32.602Z,31.44
2019-03-18T07:01:36.061Z,31.54
2019-03-18T07:04:39.622Z,31.54
2019-03-18T07:07:43.109Z,31.52
2019-03-18T07:10:46.582Z,31.48
2019-03-18T07:13:52.177Z,31.52
2019-03-18T07:16:55.653Z,31.38
2019-03-18T07:19:59.226Z,31.23
2019-03-18T07:23:02.644Z,31.31
2019-03-18T07:26:06.143Z,31.37
2019-03-18T07:29:10.678Z,31.33
2019-03-18T07:32:15.208Z,31.23
2019-03-18T07:35:18.702Z,31.36
2019-03-18T07:38:22.222Z,31.35
2019-03-18T07:41:25.666Z,31.23
2019-03-18T07:44:30.233Z,31.23
2019-03-18T07:47:33.838Z,31.14
2019-03-18T07:50:37.443Z,31.53
2019-03-18T07:53:41.038Z,31.69
2019-03-18T07:56:44.674Z,31.78
2019-03-18T07:59:49.215Z,31.81
2019-03-18T08:02:54.803Z,31.82
2019-03-18T08:05:58.276Z,31.83
2019-03-18T08:09:04.081Z,31.84
2019-03-18T08:12:08.707Z,31.82
2019-03-18T08:15:14.275Z,31.84
2019-03-18T08:18:17.759Z,31.85
2019-03-18T08:21:22.269Z,31.76
2019-03-18T08:24:25.789Z,31.81
2019-03-18T08:27:29.368Z,31.76
2019-03-18T08:30:32.893Z,31.78
2019-03-18T08:33:36.353Z,31.77
2019-03-18T08:36:39.794Z,31.70
2019-03-18T08:39:43.317Z,31.62
2019-03-18T08:42:46.769Z,31.53
2019-03-18T08:45:50.198Z,31.57
2019-03-18T08:48:56.057Z,31.48
2019-03-18T08:51:58.904Z,31.39
2019-03-18T08:55:02.406Z,31.36
2019-03-18T08:58:05.900Z,31.28
2019-03-18T09:01:11.461Z,31.17
2019-03-18T09:04:15.015Z,31.08
2019-03-18T09:07:18.672Z,31.02
2019-03-18T09:10:24.237Z,31.16
2019-03-18T09:13:27.710Z,31.05
2019-03-18T09:16:32.359Z,31.20
2019-03-18T09:19:35.824Z,31.08
2019-03-18T09:22:42.228Z,31.04
2019-03-18T09:25:49.640Z,30.96
2019-03-18T09:29:01.989Z,31.05
2019-03-18T09:32:05.511Z,30.97
2019-03-18T09:35:09.021Z,30.98
2019-03-18T09:38:12.457Z,30.88
2019-03-18T09:41:16.023Z,30.85
2019-03-18T09:44:19.538Z,30.88
2019-03-18T09:47:23.052Z,30.87
2019-03-18T09:50:26.515Z,30.79
2019-03-18T09:53:30.028Z,30.84
2019-03-18T09:56:34.635Z,31.00
2019-03-18T09:59:38.249Z,30.95
2019-03-18T10:02:41.694Z,30.92
2019-03-18T10:05:45.261Z,30.99
2019-03-18T10:08:48.813Z,30.87
2019-03-18T10:11:53.415Z,30.91
2019-03-18T10:14:56.890Z,30.91
2019-03-18T10:18:01.324Z,30.97
2019-03-18T10:21:04.760Z,30.94
2019-03-18T10:24:08.216Z,30.93
2019-03-18T10:27:11.705Z,30.79
2019-03-18T10:30:15.227Z,30.79
2019-03-18T10:33:18.701Z,30.80
2019-03-18T10:36:22.137Z,30.70
2019-03-18T10:39:25.616Z,30.61
2019-03-18T10:42:29.107Z,30.63
2019-03-18T10:45:32.616Z,30.66
2019-03-18T10:48:36.176Z,30.54
2019-03-18T10:51:39.717Z,30.52
2019-03-18T10:54:43.368Z,30.54
2019-03-18T10:57:46.839Z,30.50
2019-03-18T11:00:50.269Z,30.60
2019-03-18T11:03:53.820Z,30.58
2019-03-18T11:06:57.264Z,30.52
2019-03-18T11:10:00.874Z,30.57
2019-03-18T11:13:04.339Z,30.60
2019-03-18T11:16:07.826Z,30.43
2019-03-18T11:19:11.323Z,30.26
2019-03-18T11:22:14.828Z,30.25
2019-03-18T11:25:18.332Z,30.35
2019-03-18T11:28:21.844Z,30.30
2019-03-18T11:31:25.337Z,30.33
2019-03-18T11:34:29.330Z,30.75
2019-03-18T11:37:32.949Z,31.10
2019-03-18T11:40:37.478Z,31.12
2019-03-18T11:43:40.987Z,31.23
2019-03-18T11:46:44.495Z,31.38
2019-03-18T11:49:48.014Z,31.44
2019-03-18T11:52:51.495Z,31.37
2019-03-18T11:55:54.982Z,31.41
2019-03-18T11:58:58.463Z,31.44
2019-03-18T12:02:02.011Z,31.39
2019-03-18T12:05:07.818Z,31.34
2019-03-18T12:08:11.251Z,31.42
2019-03-18T12:11:15.834Z,31.43
2019-03-18T12:14:19.545Z,31.32
2019-03-18T12:17:23.166Z,31.34
2019-03-18T12:20:26.704Z,31.33
2019-03-18T12:23:31.206Z,31.34
2019-03-18T12:26:34.714Z,31.23
2019-03-18T12:29:38.211Z,31.25
2019-03-18T12:32:41.723Z,31.29
2019-03-18T12:35:45.219Z,31.18
2019-03-18T12:38:48.698Z,31.17
2019-03-18T12:41:52.209Z,31.17
2019-03-18T12:44:55.691Z,31.09
2019-03-18T12:47:59.220Z,31.07
2019-03-18T12:51:02.719Z,31.08
2019-03-18T12:54:08.241Z,31.19
2019-03-18T12:57:11.754Z,31.25
2019-03-18T13:00:18.387Z,31.41
2019-03-18T13:03:22.036Z,31.43
2019-03-18T13:06:25.540Z,31.46
2019-03-18T13:09:29.038Z,31.43
2019-03-18T13:12:32.534Z,31.45
2019-03-18T13:15:36.062Z,31.43
2019-03-18T13:18:40.596Z,31.42
2019-03-18T13:21:44.058Z,31.42
2019-03-18T13:24:47.558Z,31.40
2019-03-18T13:27:51.088Z,31.32
2019-03-18T13:30:54.557Z,31.28
2019-03-18T13:33:58.086Z,31.22
2019-03-18T13:37:01.589Z,31.08
2019-03-18T13:40:06.422Z,30.98
2019-03-18T13:43:10.006Z,30.91
2019-03-18T13:46:13.536Z,30.64
2019-03-18T13:49:17.004Z,30.65
2019-03-18T13:52:20.505Z,30.73
2019-03-18T13:55:24.001Z,30.53
2019-03-18T13:58:27.510Z,30.63
2019-03-18T14:01:31.080Z,30.70
2019-03-18T14:04:34.729Z,30.74
2019-03-18T14:07:38.229Z,30.76
2019-03-18T14:10:41.725Z,31.04
2019-03-18T14:13:45.219Z,31.38
2019-03-18T14:16:48.764Z,31.25
2019-03-18T14:19:52.209Z,31.28
2019-03-18T14:22:56.736Z,31.25
2019-03-18T14:26:00.243Z,31.17
2019-03-18T14:29:03.743Z,31.16
2019-03-18T14:32:08.321Z,31.16
2019-03-18T14:35:11.780Z,31.18
2019-03-18T14:38:15.312Z,31.15
2019-03-18T14:41:18.765Z,31.14
2019-03-18T14:44:22.265Z,31.06
2019-03-18T14:47:25.783Z,31.05
2019-03-18T14:50:29.274Z,31.08
2019-03-18T14:53:32.782Z,31.04
2019-03-18T14:56:36.336Z,31.08
2019-03-18T14:59:39.771Z,31.09
2019-03-18T15:02:43.283Z,31.11
2019-03-18T15:05:46.787Z,31.12
2019-03-18T15:08:51.299Z,31.15
2019-03-18T15:11:54.849Z,31.04
2019-03-18T15:14:59.339Z,31.05
2019-03-18T15:18:02.853Z,30.95
2019-03-18T15:21:06.337Z,30.93
2019-03-18T15:24:16.925Z,30.90
2019-03-18T15:27:15.228Z,30.76
2019-03-18T15:30:19.014Z,30.68
2019-03-18T15:33:23.627Z,30.77
2019-03-18T15:36:27.112Z,30.71
2019-03-18T15:39:30.722Z,30.50
2019-03-18T15:42:35.348Z,30.39
2019-03-18T15:45:38.908Z,30.19
2019-03-18T15:48:42.369Z,30.17
2019-03-18T15:51:45.931Z,30.24
2019-03-18T15:54:54.064Z,30.13
2019-03-18T15:57:54.951Z,30.15
2019-03-18T16:00:58.399Z,30.08
2019-03-18T16:04:02.762Z,30.02
2019-03-18T16:07:06.237Z,29.93
2019-03-18T16:10:10.304Z,29.95
2019-03-18T16:13:13.880Z,29.96
2019-03-18T16:16:17.351Z,29.93
2019-03-18T16:19:20.852Z,29.89
2019-03-18T16:22:25.382Z,29.91
2019-03-18T16:25:28.899Z,29.95
2019-03-18T16:28:33.442Z,29.98
2019-03-18T16:31:37.931Z,30.03
2019-03-18T16:34:41.447Z,30.03
2019-03-18T16:37:45.036Z,30.03
2019-03-18T16:40:48.749Z,30.05
2019-03-18T16:43:52.340Z,30.04
2019-03-18T16:46:55.851Z,30.45
2019-03-18T16:50:00.458Z,30.64
2019-03-18T16:53:03.867Z,30.70
2019-03-18T16:56:07.373Z,30.74
2019-03-18T16:59:13.344Z,30.79
2019-03-18T17:02:16.965Z,30.80
2019-03-18T17:05:21.550Z,30.86
2019-03-18T17:08:25.061Z,30.81
2019-03-18T17:11:28.555Z,30.82
2019-03-18T17:14:35.646Z,30.84
2019-03-18T17:17:39.256Z,30.76
2019-03-18T17:20:42.750Z,30.70
2019-03-18T17:23:46.237Z,30.71
2019-03-18T17:26:49.752Z,30.53
2019-03-18T17:29:54.280Z,30.57
2019-03-18T17:32:57.782Z,30.57
2019-03-18T17:36:03.680Z,30.54
2019-03-18T17:39:08.372Z,30.46
2019-03-18T17:42:11.977Z,30.49
2019-03-18T17:45:15.492Z,30.49
2019-03-18T17:48:20.075Z,30.52
2019-03-18T17:51:23.685Z,30.55
2019-03-18T17:54:27.198Z,30.57
2019-03-18T17:57:30.784Z,30.63
2019-03-18T18:00:37.880Z,30.58
2019-03-18T18:03:41.401Z,30.60
2019-03-18T18:06:44.877Z,30.62
2019-03-18T18:09:48.510Z,30.64
2019-03-18T18:12:52.122Z,30.66
2019-03-18T18:15:55.596Z,30.66
2019-03-18T18:18:59.132Z,30.69
2019-03-18T18:22:02.683Z,30.67
2019-03-18T18:25:07.524Z,30.71
2019-03-18T18:28:11.032Z,30.71
2019-03-18T18:31:14.524Z,30.69
2019-03-18T18:34:18.039Z,30.68
2019-03-18T18:37:21.626Z,30.70
2019-03-18T18:40:25.347Z,30.71
2019-03-18T18:43:28.946Z,30.72
2019-03-18T18:46:32.433Z,30.74
2019-03-18T18:49:36.056Z,30.80
2019-03-18T18:52:39.716Z,30.81
2019-03-18T18:55:43.351Z,30.78
2019-03-18T18:58:46.888Z,30.78
2019-03-18T19:01:50.347Z,30.86
2019-03-18T19:04:53.932Z,30.82
2019-03-18T19:07:57.812Z,30.84
2019-03-18T19:11:01.514Z,30.87
2019-03-18T19:14:06.096Z,30.88
2019-03-18T19:17:09.706Z,30.88
2019-03-18T19:20:13.220Z,30.90
2019-03-18T19:23:16.698Z,30.91
2019-03-18T19:26:21.321Z,30.92
2019-03-18T19:29:24.936Z,30.91
2019-03-18T19:32:28.427Z,30.88
2019-03-18T19:35:31.964Z,30.89
2019-03-18T19:38:35.460Z,30.90
2019-03-18T19:41:40.203Z,30.94
2019-03-18T19:44:43.895Z,31.12
2019-03-18T19:47:47.477Z,31.24
2019-03-18T19:50:52.107Z,31.30
2019-03-18T19:53:56.647Z,31.36
2019-03-18T19:57:00.126Z,31.37
2019-03-18T20:00:04.209Z,31.29
2019-03-18T20:03:08.772Z,31.23
2019-03-18T20:06:12.384Z,31.31
2019-03-18T20:09:16.115Z,31.37
2019-03-18T20:12:19.812Z,31.40
2019-03-18T20:15:23.408Z,31.47
2019-03-18T20:18:27.913Z,31.48
2019-03-18T20:21:31.445Z,31.48
2019-03-18T20:24:34.944Z,31.55
2019-03-18T20:27:38.431Z,31.52
2019-03-18T20:30:41.933Z,31.54
2019-03-18T20:33:46.464Z,31.57
2019-03-18T20:36:50.971Z,31.56
2019-03-18T20:39:54.583Z,31.59
2019-03-18T20:42:58.278Z,31.58
2019-03-18T20:46:02.918Z,31.60
2019-03-18T20:49:06.470Z,31.60
2019-03-18T20:52:16.834Z,31.60
2019-03-18T20:55:17.309Z,31.61
2019-03-18T20:58:20.794Z,31.60
2019-03-18T21:01:24.323Z,31.62
2019-03-18T21:04:27.823Z,31.63
2019-03-18T21:07:31.307Z,31.62
2019-03-18T21:10:34.815Z,31.60
2019-03-18T21:13:38.274Z,31.59
2019-03-18T21:16:41.837Z,31.60
2019-03-18T21:19:47.386Z,31.66
2019-03-18T21:22:51.975Z,31.72
2019-03-18T21:25:55.634Z,31.60
2019-03-18T21:28:59.102Z,31.48
2019-03-18T21:32:02.589Z,31.48
2019-03-18T21:35:06.391Z,31.41
2019-03-18T21:38:09.992Z,31.41
2019-03-18T21:41:13.518Z,31.35
2019-03-18T21:44:17.100Z,31.34
2019-03-18T21:47:20.751Z,31.29
2019-03-18T21:50:24.215Z,31.26
2019-03-18T21:53:27.802Z,31.24
2019-03-18T21:56:32.440Z,31.21
2019-03-18T21:59:35.962Z,31.21
2019-03-18T22:02:40.467Z,31.20
2019-03-18T22:05:45.045Z,31.17
2019-03-18T22:08:48.642Z,31.18
2019-03-18T22:11:52.221Z,31.18
2019-03-18T22:14:55.712Z,31.17
2019-03-18T22:18:00.217Z,31.15
2019-03-18T22:21:03.774Z,31.10
2019-03-18T22:24:09.268Z,31.09
2019-03-18T22:27:14.809Z,31.08
2019-03-18T22:30:18.343Z,31.03
2019-03-18T22:33:21.817Z,31.07
2019-03-18T22:36:28.405Z,31.08
2019-03-18T22:39:31.898Z,31.05
2019-03-18T22:42:35.509Z,31.04
2019-03-18T22:45:39.115Z,31.13
2019-03-18T22:48:42.610Z,31.01
2019-03-18T22:51:46.166Z,31.08
2019-03-18T22:54:55.942Z,31.12
2019-03-18T22:57:55.157Z,30.99
2019-03-18T23:01:10.090Z,31.03
2019-03-18T23:04:14.639Z,31.07
2019-03-18T23:07:18.154Z,31.10
2019-03-18T23:10:21.649Z,31.07
2019-03-18T23:13:25.241Z,31.07
2019-03-18T23:16:28.862Z,31.11
2019-03-18T23:19:32.381Z,31.04
2019-03-18T23:22:35.894Z,31.10
2019-03-18T23:25:39.367Z,31.08
2019-03-18T23:28:42.846Z,31.13
2019-03-18T23:31:46.385Z,31.12
2019-03-18T23:34:49.864Z,31.09
2019-03-18T23:37:53.367Z,31.11
2019-03-18T23:40:57.880Z,31.12
2019-03-18T23:44:01.489Z,31.12
2019-03-18T23:47:05.107Z,31.13
2019-03-18T23:50:08.883Z,31.12
2019-03-18T23:53:12.509Z,31.13
2019-03-18T23:56:16.004Z,31.13
2019-03-18T23:59:19.502Z,31.12
